Walkerton, Indiana
Current Conditions -  °F | °C
As of 6:15 PM on Friday 31 Oct 2014 (Local Time) from KOXI Reporting Station
Broken Clouds Broken Clouds  
Wind Chill: 27°   Ceiling: 4000
Heat Index: 36°   Visibility: 10mi
Dew Point: 32°   Wind: 13mph
Humidity: 88%   Direction: 350°N
Pressure: 30.14"   Gusts: NA
Location:  41.47°N, 86.48°W
Report Text: KOXI 312215Z AUTO 35011KT 10SM SCT030 BKN040 BKN060 02/00 A3014 RMK AO1 T00200002
Loading
Personal Weather Stations






























Interactive Weather Map
Tropical Storm Tracking
New forecast layout! Learn more

10-Day Weather Forecast

Advertisements
Track Severe Weather on mobile